Time;durP1;ratioP1;P1;durP2;ratioP2;P2;SDS_P1;SDS_P2;PMS_P1;PMS_P2;Temp;Humidity;BMP_temperature;BMP_pressure;BME280_temperature;BME280_humidity;BME280_pressure;Samples;Min_cycle;Max_cycle;Signal;HPM_P1;HPM_P2
2023/09/30 00:00:55;;;;;;;13.02;4.47;;;14.00;99.90;;;;;;5031908;28;20056;-56
2023/09/30 00:03:20;;;;;;;16.20;4.80;;;14.10;99.90;;;;;;5034041;28;20048;-57
2023/09/30 00:05:46;;;;;;;21.65;5.10;;;14.00;99.90;;;;;;5039295;28;20419;-56
2023/09/30 00:08:11;;;;;;;13.55;4.97;;;14.00;99.90;;;;;;5031775;28;20030;-56
2023/09/30 00:10:37;;;;;;;11.63;4.00;;;14.00;99.90;;;;;;5049299;28;20032;-56
2023/09/30 00:13:03;;;;;;;19.63;5.47;;;14.00;99.90;;;;;;5049982;28;20511;-56
2023/09/30 00:15:28;;;;;;;14.35;4.95;;;14.00;99.90;;;;;;5038155;28;20068;-57
2023/09/30 00:17:54;;;;;;;16.60;5.53;;;13.90;99.90;;;;;;5033444;28;20084;-57
2023/09/30 00:20:19;;;;;;;16.75;4.60;;;13.90;99.90;;;;;;5033748;28;20033;-56
2023/09/30 00:22:45;;;;;;;13.52;5.25;;;13.90;99.90;;;;;;5039329;28;20061;-56
2023/09/30 00:25:10;;;;;;;14.98;5.00;;;13.90;99.90;;;;;;5039451;28;20024;-56
2023/09/30 00:27:37;;;;;;;18.45;5.25;;;13.90;99.90;;;;;;5043831;28;20546;-55
2023/09/30 00:30:03;;;;;;;17.15;6.03;;;13.80;99.90;;;;;;5044518;28;20031;-56
2023/09/30 00:32:29;;;;;;;21.80;5.38;;;13.80;99.90;;;;;;5036346;28;20108;-56
2023/09/30 00:34:54;;;;;;;9.77;4.40;;;13.80;99.90;;;;;;5033504;28;20611;-55
2023/09/30 00:37:20;;;;;;;12.65;4.45;;;13.70;99.90;;;;;;5041643;28;20638;-56
2023/09/30 00:39:46;;;;;;;20.65;5.05;;;13.70;99.90;;;;;;5038973;28;20029;-55
2023/09/30 00:42:11;;;;;;;18.88;5.78;;;13.70;99.90;;;;;;5032217;28;20029;-55
2023/09/30 00:44:37;;;;;;;22.65;5.55;;;13.70;99.90;;;;;;5034889;28;20052;-56
2023/09/30 00:47:03;;;;;;;25.35;6.47;;;13.60;99.90;;;;;;5035977;28;20029;-56
2023/09/30 00:49:29;;;;;;;16.38;5.10;;;13.60;99.90;;;;;;5034435;28;20036;-56
2023/09/30 00:51:56;;;;;;;18.90;4.93;;;13.60;99.90;;;;;;5035943;28;20024;-57
2023/09/30 00:54:24;;;;;;;18.17;5.93;;;13.60;99.90;;;;;;5033238;28;20041;-57
2023/09/30 00:56:55;;;;;;;16.75;5.00;;;13.60;99.90;;;;;;5033091;28;20033;-56
2023/09/30 00:59:21;;;;;;;13.93;4.65;;;13.50;99.90;;;;;;5034518;28;20523;-56
2023/09/30 01:01:47;;;;;;;16.60;5.68;;;13.50;99.90;;;;;;5033302;28;20061;-56
2023/09/30 01:04:13;;;;;;;17.02;5.35;;;13.50;99.90;;;;;;5036981;28;20030;-56
2023/09/30 01:06:38;;;;;;;18.35;5.18;;;13.40;99.90;;;;;;5041795;28;20104;-56
2023/09/30 01:09:04;;;;;;;13.90;5.28;;;13.40;99.90;;;;;;5033678;28;20081;-56
2023/09/30 01:11:31;;;;;;;16.60;5.15;;;13.40;99.90;;;;;;5047537;28;20155;-56
2023/09/30 01:13:57;;;;;;;22.50;6.22;;;13.30;99.90;;;;;;5033260;28;20025;-56
2023/09/30 01:16:23;;;;;;;20.65;6.43;;;13.40;99.90;;;;;;5035280;28;20514;-56
2023/09/30 01:18:49;;;;;;;15.73;5.60;;;13.30;99.90;;;;;;5050050;28;20025;-56
2023/09/30 01:21:14;;;;;;;21.08;6.53;;;13.30;99.90;;;;;;5048681;28;20060;-56
2023/09/30 01:23:40;;;;;;;16.08;6.00;;;13.30;99.90;;;;;;5040574;28;20107;-56
2023/09/30 01:26:12;;;;;;;17.40;5.68;;;13.30;99.90;;;;;;5038649;28;20039;-56
2023/09/30 01:28:38;;;;;;;18.17;6.47;;;13.30;99.90;;;;;;5036471;28;20078;-55
2023/09/30 01:31:04;;;;;;;20.55;6.85;;;13.30;99.90;;;;;;5039952;28;20021;-56
2023/09/30 01:33:29;;;;;;;16.95;5.15;;;13.30;99.90;;;;;;5038066;28;20028;-55
2023/09/30 01:35:55;;;;;;;17.77;6.28;;;13.30;99.90;;;;;;5033901;28;20036;-56
2023/09/30 01:38:21;;;;;;;25.35;5.65;;;13.20;99.90;;;;;;5035346;28;20505;-55
2023/09/30 01:40:47;;;;;;;14.48;6.10;;;13.20;99.90;;;;;;5040220;28;20284;-56
2023/09/30 01:43:13;;;;;;;20.73;5.60;;;13.20;99.90;;;;;;5021808;28;20033;-56
2023/09/30 01:45:42;;;;;;;13.98;4.85;;;13.20;99.90;;;;;;5034700;28;20096;-55
2023/09/30 01:48:10;;;;;;;15.70;6.07;;;13.20;99.90;;;;;;5032633;28;20026;-56
2023/09/30 01:50:37;;;;;;;14.82;5.70;;;13.10;99.90;;;;;;5033822;28;20027;-55
2023/09/30 01:53:04;;;;;;;21.77;5.72;;;13.10;99.90;;;;;;5043904;28;20025;-55
2023/09/30 01:55:30;;;;;;;17.85;6.43;;;13.10;99.90;;;;;;5035013;28;20034;-56
2023/09/30 01:57:55;;;;;;;16.17;5.93;;;13.10;99.90;;;;;;5040570;28;20043;-56
2023/09/30 02:00:21;;;;;;;25.77;6.15;;;13.10;99.90;;;;;;5040473;28;20052;-57
2023/09/30 02:02:46;;;;;;;19.85;6.65;;;13.00;99.90;;;;;;5034301;28;20053;-56
2023/09/30 02:05:13;;;;;;;13.80;5.53;;;13.00;99.90;;;;;;5048100;28;20021;-57
2023/09/30 02:07:38;;;;;;;15.73;5.32;;;13.00;99.90;;;;;;5040364;28;20075;-57
2023/09/30 02:10:04;;;;;;;17.30;5.20;;;13.00;99.90;;;;;;5041688;28;20021;-56
2023/09/30 02:12:30;;;;;;;15.90;5.10;;;12.90;99.90;;;;;;5035602;28;20037;-56
2023/09/30 02:14:56;;;;;;;19.48;6.28;;;12.90;99.90;;;;;;5043963;28;20109;-56
2023/09/30 02:17:22;;;;;;;16.13;5.50;;;12.90;99.90;;;;;;5046109;28;20025;-56
2023/09/30 02:19:48;;;;;;;16.48;6.25;;;12.90;99.90;;;;;;5035418;28;20022;-56
2023/09/30 02:22:13;;;;;;;18.55;5.72;;;12.80;99.90;;;;;;5040029;28;20478;-56
2023/09/30 02:24:40;;;;;;;20.27;7.25;;;12.80;99.90;;;;;;5041376;28;20283;-56
2023/09/30 02:27:05;;;;;;;20.50;5.45;;;12.80;99.90;;;;;;5037969;28;20088;-56
2023/09/30 02:29:31;;;;;;;23.45;5.93;;;12.80;99.90;;;;;;5036369;28;20036;-57
2023/09/30 02:31:56;;;;;;;17.17;6.20;;;12.70;99.90;;;;;;5033530;28;20053;-56
2023/09/30 02:34:22;;;;;;;21.45;5.35;;;12.70;99.90;;;;;;5034579;28;20178;-57
2023/09/30 02:36:48;;;;;;;17.95;6.50;;;12.70;99.90;;;;;;5040614;28;20494;-57
2023/09/30 02:39:16;;;;;;;25.55;6.60;;;12.70;99.90;;;;;;5041653;28;20221;-56
2023/09/30 02:41:42;;;;;;;14.27;5.93;;;12.70;99.90;;;;;;5047096;28;20028;-57
2023/09/30 02:44:07;;;;;;;19.98;5.82;;;12.70;99.90;;;;;;5033118;28;20025;-57
2023/09/30 02:46:33;;;;;;;20.27;6.03;;;12.60;99.90;;;;;;5048299;28;20060;-57
2023/09/30 02:49:00;;;;;;;22.25;6.40;;;12.60;99.90;;;;;;5044580;28;20032;-57
2023/09/30 02:51:26;;;;;;;21.67;6.72;;;12.60;99.90;;;;;;5043669;28;20025;-57
2023/09/30 02:53:51;;;;;;;24.90;6.10;;;12.70;99.90;;;;;;5040315;28;20022;-57
2023/09/30 02:56:19;;;;;;;23.00;6.00;;;12.60;99.90;;;;;;5041579;28;20035;-56
2023/09/30 02:58:45;;;;;;;27.73;6.45;;;12.60;99.90;;;;;;5043257;28;20036;-56
2023/09/30 03:01:16;;;;;;;19.35;6.75;;;12.60;99.90;;;;;;5044204;28;20033;-55
2023/09/30 03:03:44;;;;;;;22.85;6.50;;;12.50;99.90;;;;;;5040223;28;20025;-56
2023/09/30 03:06:10;;;;;;;19.88;6.32;;;12.50;99.90;;;;;;5040383;28;20028;-56
2023/09/30 03:08:36;;;;;;;20.95;6.45;;;12.50;99.90;;;;;;5046954;28;20064;-56
2023/09/30 03:11:02;;;;;;;17.65;5.75;;;12.50;99.90;;;;;;5039818;28;20040;-56
2023/09/30 03:13:27;;;;;;;22.33;6.10;;;12.40;99.90;;;;;;5042141;28;20502;-57
2023/09/30 03:15:53;;;;;;;18.75;6.13;;;12.40;99.90;;;;;;5040244;28;20451;-56
2023/09/30 03:18:26;;;;;;;18.17;5.85;;;12.40;99.90;;;;;;5041557;28;20083;-55
2023/09/30 03:21:00;;;;;;;15.35;5.45;;;12.40;99.90;;;;;;5040631;28;20014;-56
2023/09/30 03:23:30;;;;;;;14.98;5.43;;;12.40;99.90;;;;;;5041823;28;20021;-55
2023/09/30 03:25:59;;;;;;;25.35;7.03;;;12.40;99.90;;;;;;5039625;28;20398;-56
2023/09/30 03:28:26;;;;;;;19.88;5.63;;;12.40;99.90;;;;;;5040321;28;20060;-56
2023/09/30 03:30:52;;;;;;;23.02;7.15;;;12.40;99.90;;;;;;5041124;28;20056;-56
2023/09/30 03:33:17;;;;;;;15.07;5.53;;;12.40;99.90;;;;;;5046159;28;20025;-56
2023/09/30 03:35:44;;;;;;;25.98;6.63;;;12.40;99.90;;;;;;5041866;28;20059;-58
2023/09/30 03:38:10;;;;;;;29.27;6.30;;;12.40;99.90;;;;;;5040959;28;20483;-57
2023/09/30 03:40:38;;;;;;;23.58;6.70;;;12.40;99.90;;;;;;5052586;28;20070;-57
2023/09/30 03:43:05;;;;;;;26.08;6.07;;;12.40;99.90;;;;;;5047532;28;20024;-57
2023/09/30 03:45:32;;;;;;;21.35;5.90;;;12.30;99.90;;;;;;5048871;28;20032;-57
2023/09/30 03:47:58;;;;;;;12.65;4.80;;;12.40;99.90;;;;;;5042524;28;20101;-57
2023/09/30 03:50:24;;;;;;;23.08;6.47;;;12.40;99.90;;;;;;5048024;28;20100;-56
2023/09/30 03:52:50;;;;;;;23.50;6.43;;;12.40;99.90;;;;;;5041133;28;20112;-57
2023/09/30 03:55:17;;;;;;;19.98;5.20;;;12.40;99.90;;;;;;5047020;28;20033;-57
2023/09/30 03:57:47;;;;;;;18.15;6.60;;;12.30;99.90;;;;;;5045552;28;20433;-58
2023/09/30 04:00:18;;;;;;;15.88;5.68;;;12.30;99.90;;;;;;5042968;28;20049;-58
2023/09/30 04:02:48;;;;;;;19.25;6.60;;;12.30;99.90;;;;;;5039210;28;20394;-57
2023/09/30 04:05:14;;;;;;;17.52;5.25;;;12.30;99.90;;;;;;5043192;28;20021;-56
2023/09/30 04:07:42;;;;;;;24.45;6.38;;;12.30;99.90;;;;;;5045529;28;20017;-56
2023/09/30 04:10:08;;;;;;;26.27;6.05;;;12.30;99.90;;;;;;5037711;28;20100;-56
2023/09/30 04:12:34;;;;;;;22.98;6.20;;;12.30;99.90;;;;;;5037351;28;20052;-57
2023/09/30 04:15:00;;;;;;;23.38;5.72;;;12.30;99.90;;;;;;5037823;28;20026;-57
2023/09/30 04:17:27;;;;;;;23.15;6.00;;;12.30;99.90;;;;;;5038932;28;20041;-58
2023/09/30 04:19:53;;;;;;;27.77;7.25;;;12.30;99.90;;;;;;5051048;28;20025;-57
2023/09/30 04:22:19;;;;;;;14.15;4.93;;;12.30;99.90;;;;;;5040151;28;20026;-57
2023/09/30 04:24:45;;;;;;;26.45;7.90;;;12.20;99.90;;;;;;5049807;28;20025;-57
2023/09/30 04:27:11;;;;;;;15.60;5.85;;;12.30;99.90;;;;;;5037650;28;20100;-58
2023/09/30 04:29:37;;;;;;;20.48;6.68;;;12.20;99.90;;;;;;5039120;28;20117;-56
2023/09/30 04:32:04;;;;;;;23.30;6.38;;;12.20;99.90;;;;;;5043893;28;20546;-57
2023/09/30 04:34:30;;;;;;;19.85;5.68;;;12.20;99.90;;;;;;5049606;28;20104;-57
2023/09/30 04:36:56;;;;;;;19.75;5.63;;;12.20;99.90;;;;;;5045230;28;20239;-57
2023/09/30 04:39:21;;;;;;;22.58;5.63;;;12.20;99.90;;;;;;5038865;28;20041;-56
2023/09/30 04:41:47;;;;;;;20.88;5.18;;;12.20;99.90;;;;;;5043836;28;20033;-58
2023/09/30 04:44:13;;;;;;;23.60;5.28;;;12.20;99.90;;;;;;5047344;28;20407;-57
2023/09/30 04:46:40;;;;;;;21.05;6.18;;;12.10;99.90;;;;;;5041265;28;20086;-57
2023/09/30 04:49:07;;;;;;;26.77;7.50;;;12.20;99.90;;;;;;5043935;28;20083;-57
2023/09/30 04:51:34;;;;;;;22.27;6.10;;;12.10;99.90;;;;;;5041417;28;20056;-57
2023/09/30 04:53:59;;;;;;;24.67;6.53;;;12.20;99.90;;;;;;5037610;28;20592;-57
2023/09/30 04:56:25;;;;;;;17.65;6.65;;;12.20;99.90;;;;;;5039622;28;20116;-57
2023/09/30 04:58:51;;;;;;;19.67;5.57;;;12.20;99.90;;;;;;5034689;28;20053;-57
2023/09/30 05:01:18;;;;;;;24.00;5.28;;;12.20;99.90;;;;;;5037739;28;20057;-57
2023/09/30 05:03:44;;;;;;;17.92;5.35;;;12.20;99.90;;;;;;5045560;28;20467;-57
2023/09/30 05:06:10;;;;;;;21.10;6.55;;;12.20;99.90;;;;;;5040789;28;20055;-57
2023/09/30 05:08:35;;;;;;;22.23;6.22;;;12.20;99.90;;;;;;5039789;28;20506;-57
2023/09/30 05:11:01;;;;;;;27.05;6.72;;;12.20;99.90;;;;;;5036654;28;20017;-56
2023/09/30 05:13:27;;;;;;;20.75;5.65;;;12.20;99.90;;;;;;5040429;28;20188;-57
2023/09/30 05:15:52;;;;;;;16.58;5.00;;;12.20;99.90;;;;;;5037619;28;20116;-57
2023/09/30 05:18:18;;;;;;;19.17;5.47;;;12.30;99.90;;;;;;5038359;28;20025;-57
2023/09/30 05:20:44;;;;;;;21.17;5.70;;;12.30;99.90;;;;;;5040270;28;20052;-57
2023/09/30 05:23:12;;;;;;;20.88;5.32;;;12.30;99.90;;;;;;5037589;28;20096;-57
2023/09/30 05:25:39;;;;;;;25.33;5.90;;;12.30;99.90;;;;;;5034620;28;20475;-58
2023/09/30 05:28:06;;;;;;;24.88;6.10;;;12.40;99.90;;;;;;5046058;28;20013;-58
2023/09/30 05:30:33;;;;;;;25.45;6.63;;;12.40;99.90;;;;;;5050135;28;20052;-57
2023/09/30 05:32:58;;;;;;;21.40;6.32;;;12.50;99.90;;;;;;5042622;28;20472;-57
2023/09/30 05:35:24;;;;;;;22.58;6.18;;;12.50;99.90;;;;;;5038066;28;20129;-57
2023/09/30 05:37:52;;;;;;;12.82;4.40;;;12.50;99.90;;;;;;5039416;28;20021;-57
2023/09/30 05:40:22;;;;;;;15.60;5.20;;;12.50;99.90;;;;;;5037669;28;20025;-57
2023/09/30 05:42:49;;;;;;;18.40;5.30;;;12.60;99.90;;;;;;5036879;28;20561;-57
2023/09/30 05:45:15;;;;;;;22.60;5.80;;;12.60;99.90;;;;;;5039382;28;20025;-57
2023/09/30 05:47:41;;;;;;;18.40;5.72;;;12.60;99.90;;;;;;5037452;28;20036;-57
2023/09/30 05:50:08;;;;;;;16.92;5.10;;;12.60;99.90;;;;;;5037530;28;20399;-57
2023/09/30 05:52:34;;;;;;;19.30;6.50;;;12.60;99.90;;;;;;5042876;28;20054;-57
2023/09/30 05:55:00;;;;;;;23.88;6.38;;;12.70;99.90;;;;;;5039538;28;20569;-57
2023/09/30 05:57:27;;;;;;;17.58;5.50;;;12.70;99.90;;;;;;5049797;28;20130;-57
2023/09/30 05:59:52;;;;;;;24.80;7.22;;;12.60;99.90;;;;;;5036906;28;20394;-57
2023/09/30 06:02:19;;;;;;;22.40;6.57;;;12.70;99.90;;;;;;5038765;28;20068;-57
2023/09/30 06:04:46;;;;;;;23.42;5.75;;;12.70;99.90;;;;;;5040422;28;20040;-57
2023/09/30 06:07:12;;;;;;;17.20;7.13;;;12.80;99.90;;;;;;5040706;28;20013;-57
2023/09/30 06:09:37;;;;;;;19.02;5.90;;;12.90;99.90;;;;;;5036806;28;20036;-57
2023/09/30 06:12:06;;;;;;;22.98;6.00;;;12.90;99.90;;;;;;5035104;28;20026;-57
2023/09/30 06:14:32;;;;;;;20.20;5.15;;;13.00;99.90;;;;;;5038419;28;20029;-57
2023/09/30 06:16:58;;;;;;;16.42;5.30;;;13.00;99.90;;;;;;5043099;28;20017;-57
2023/09/30 06:19:25;;;;;;;21.67;6.57;;;13.00;99.90;;;;;;5037978;28;20034;-57
2023/09/30 06:21:51;;;;;;;22.58;7.05;;;13.00;99.90;;;;;;5044041;28;20040;-57
2023/09/30 06:24:19;;;;;;;22.05;6.70;;;13.00;99.90;;;;;;5038560;28;20053;-57
2023/09/30 06:26:45;;;;;;;19.77;5.75;;;13.10;99.90;;;;;;5043509;28;20486;-57
2023/09/30 06:29:11;;;;;;;14.52;5.60;;;13.10;99.90;;;;;;5036556;28;20087;-57
2023/09/30 06:31:37;;;;;;;17.17;6.10;;;13.10;99.90;;;;;;5040449;28;20017;-57
2023/09/30 06:34:03;;;;;;;15.15;5.40;;;13.20;99.90;;;;;;5038054;28;20025;-57
2023/09/30 06:36:29;;;;;;;21.95;6.57;;;13.20;99.90;;;;;;5040409;28;20026;-58
2023/09/30 06:38:54;;;;;;;15.90;5.97;;;13.20;99.90;;;;;;5039487;28;20465;-56
2023/09/30 06:41:20;;;;;;;18.13;6.20;;;13.30;99.90;;;;;;5042719;28;20332;-57
2023/09/30 06:43:46;;;;;;;16.52;6.28;;;13.30;99.90;;;;;;5047847;28;20512;-57
2023/09/30 06:46:12;;;;;;;17.05;6.40;;;13.30;99.90;;;;;;5041611;28;20034;-57
2023/09/30 06:48:40;;;;;;;18.17;5.53;;;13.30;99.90;;;;;;5037056;28;20013;-57
2023/09/30 06:51:06;;;;;;;23.33;5.97;;;13.40;99.90;;;;;;5038467;28;20100;-57
2023/09/30 06:53:31;;;;;;;23.08;5.80;;;13.40;99.90;;;;;;5040499;28;20104;-56
2023/09/30 06:55:57;;;;;;;22.75;6.10;;;13.50;99.90;;;;;;5040055;28;20474;-56
2023/09/30 06:58:23;;;;;;;18.98;6.80;;;13.40;99.90;;;;;;5034034;28;20075;-56
2023/09/30 07:00:55;;;;;;;17.30;6.07;;;13.50;99.90;;;;;;5047841;28;20060;-56
2023/09/30 07:03:21;;;;;;;22.38;6.25;;;13.50;99.90;;;;;;5040814;28;20368;-57
2023/09/30 07:05:49;;;;;;;16.50;6.10;;;13.50;99.90;;;;;;5040558;28;20079;-58
2023/09/30 07:08:18;;;;;;;25.90;7.30;;;13.60;99.90;;;;;;5038882;28;20014;-57
2023/09/30 07:10:49;;;;;;;17.25;5.93;;;13.60;99.90;;;;;;5036914;28;20016;-57
2023/09/30 07:13:18;;;;;;;23.85;6.75;;;13.60;99.90;;;;;;5045976;28;20070;-57
2023/09/30 07:15:43;;;;;;;20.27;6.72;;;13.70;99.90;;;;;;5043176;28;20029;-57
2023/09/30 07:18:09;;;;;;;16.75;5.80;;;13.70;99.90;;;;;;5040564;28;20387;-57
2023/09/30 07:20:35;;;;;;;20.63;5.85;;;13.80;99.90;;;;;;5041334;28;20027;-57
2023/09/30 07:23:03;;;;;;;20.33;5.50;;;13.80;99.90;;;;;;5042436;28;20051;-57
2023/09/30 07:25:31;;;;;;;21.17;5.68;;;13.80;99.90;;;;;;5042601;28;20534;-57
2023/09/30 07:27:57;;;;;;;20.85;6.07;;;13.90;99.90;;;;;;5040231;28;20386;-57
2023/09/30 07:30:24;;;;;;;14.13;5.43;;;14.00;99.90;;;;;;5039658;28;20041;-57
2023/09/30 07:32:50;;;;;;;16.77;4.80;;;14.00;99.90;;;;;;5044434;28;20501;-58
2023/09/30 07:35:15;;;;;;;15.73;5.72;;;14.10;99.90;;;;;;5041887;28;20021;-57
2023/09/30 07:37:42;;;;;;;19.90;5.45;;;14.10;99.90;;;;;;5045760;28;20029;-55
2023/09/30 07:40:08;;;;;;;21.63;5.90;;;14.20;99.90;;;;;;5041073;28;20095;-55
2023/09/30 07:42:34;;;;;;;12.88;4.75;;;14.30;99.90;;;;;;5046656;28;20433;-55
2023/09/30 07:45:00;;;;;;;23.58;5.60;;;14.40;99.90;;;;;;5044703;28;20021;-55
2023/09/30 07:47:25;;;;;;;19.92;6.32;;;14.40;99.90;;;;;;5040674;28;20030;-56
2023/09/30 07:49:51;;;;;;;31.98;5.80;;;14.50;99.90;;;;;;5045461;28;20037;-55
2023/09/30 07:52:16;;;;;;;16.90;5.57;;;14.60;99.90;;;;;;5043840;28;20379;-57
2023/09/30 07:54:43;;;;;;;13.23;5.00;;;14.60;99.90;;;;;;5050993;28;20662;-57
2023/09/30 07:57:08;;;;;;;19.15;5.53;;;14.70;99.90;;;;;;5039714;28;20037;-57
2023/09/30 07:59:34;;;;;;;18.13;5.72;;;14.80;99.90;;;;;;5027580;28;20510;-57
2023/09/30 08:02:01;;;;;;;22.70;6.53;;;14.80;99.90;;;;;;5043906;28;20033;-57
2023/09/30 08:04:26;;;;;;;14.70;5.00;;;14.90;99.90;;;;;;5044192;28;20074;-57
2023/09/30 08:06:53;;;;;;;13.95;4.65;;;15.00;99.90;;;;;;5043898;28;20413;-57
2023/09/30 08:09:18;;;;;;;19.27;4.40;;;15.10;99.90;;;;;;5046122;28;20482;-56
2023/09/30 08:11:44;;;;;;;19.90;5.57;;;15.20;99.90;;;;;;5045474;28;20056;-57
2023/09/30 08:14:10;;;;;;;23.67;5.78;;;15.30;99.90;;;;;;5042874;28;20463;-57
2023/09/30 08:16:36;;;;;;;15.55;4.10;;;15.40;99.90;;;;;;5047224;28;20036;-57
2023/09/30 08:19:03;;;;;;;13.18;4.15;;;15.50;99.90;;;;;;5041942;28;20074;-58
2023/09/30 08:21:29;;;;;;;18.95;4.80;;;15.60;99.90;;;;;;5041049;28;20495;-57
2023/09/30 08:23:54;;;;;;;16.25;4.25;;;15.70;99.90;;;;;;5043301;28;20033;-57
2023/09/30 08:26:20;;;;;;;13.52;5.18;;;15.90;99.90;;;;;;5045298;28;20033;-57
2023/09/30 08:28:46;;;;;;;12.75;4.43;;;16.20;99.90;;;;;;5046808;28;20375;-57
2023/09/30 08:31:11;;;;;;;16.85;3.90;;;17.40;99.90;;;;;;5042855;28;20021;-57
2023/09/30 08:33:39;;;;;;;13.98;4.20;;;18.70;99.90;;;;;;5048219;28;20394;-58
2023/09/30 08:36:08;;;;;;;14.23;4.25;;;19.60;99.90;;;;;;5045745;28;20025;-57
2023/09/30 08:38:35;;;;;;;12.35;4.30;;;21.20;99.90;;;;;;5045134;28;20036;-58
2023/09/30 08:41:02;;;;;;;14.02;4.25;;;22.20;99.90;;;;;;5045146;28;20033;-56
2023/09/30 08:43:30;;;;;;;16.48;4.57;;;23.40;97.30;;;;;;5042734;28;20036;-55
2023/09/30 08:45:56;;;;;;;13.40;4.90;;;24.30;93.50;;;;;;5037688;28;20029;-55
2023/09/30 08:48:24;;;;;;;9.27;3.63;;;24.90;91.90;;;;;;5042363;28;20430;-55
2023/09/30 08:50:52;;;;;;;8.65;3.95;;;25.40;90.90;;;;;;5045927;28;20047;-56
2023/09/30 08:53:19;;;;;;;9.57;3.90;;;25.80;90.40;;;;;;5037588;28;20471;-55
2023/09/30 08:55:47;;;;;;;13.68;3.90;;;26.10;88.10;;;;;;5046073;28;20033;-57
2023/09/30 08:58:13;;;;;;;9.50;3.33;;;27.00;84.80;;;;;;5043705;28;20017;-56
2023/09/30 09:00:39;;;;;;;12.10;4.05;;;27.10;84.30;;;;;;5045203;28;20040;-57
2023/09/30 09:03:07;;;;;;;15.88;4.65;;;27.60;83.10;;;;;;5047727;28;20104;-57
2023/09/30 09:05:33;;;;;;;9.75;3.72;;;28.30;81.00;;;;;;5046086;28;20557;-57
2023/09/30 09:07:58;;;;;;;10.07;4.03;;;28.00;79.60;;;;;;5040448;28;20068;-56
2023/09/30 09:10:24;;;;;;;11.10;3.72;;;27.60;79.20;;;;;;5038450;28;20025;-56
2023/09/30 09:12:56;;;;;;;11.20;3.88;;;28.00;79.10;;;;;;5048322;28;20029;-57
2023/09/30 09:15:25;;;;;;;8.93;3.85;;;27.80;78.10;;;;;;5043420;28;20389;-56
2023/09/30 09:17:51;;;;;;;10.98;3.53;;;28.40;77.40;;;;;;5042581;28;20021;-56
2023/09/30 09:20:21;;;;;;;12.35;4.05;;;29.10;77.10;;;;;;5045539;28;20020;-56
2023/09/30 09:22:50;;;;;;;14.57;4.15;;;28.80;76.80;;;;;;5046494;28;20434;-56
2023/09/30 09:25:16;;;;;;;12.43;3.47;;;29.20;76.00;;;;;;5038942;28;20215;-56
2023/09/30 09:27:42;;;;;;;10.10;4.03;;;29.40;74.40;;;;;;5040379;28;20104;-57
2023/09/30 09:30:38;;;;;;;8.98;3.35;;;29.50;72.20;;;;;;5045182;28;20029;-57
2023/09/30 09:33:07;;;;;;;9.35;3.33;;;29.10;72.70;;;;;;5039251;28;20102;-56
2023/09/30 09:35:34;;;;;;;13.53;3.43;;;29.10;73.70;;;;;;5046712;28;20037;-56
2023/09/30 09:38:00;;;;;;;12.65;3.03;;;29.10;73.10;;;;;;5045610;28;20275;-56
2023/09/30 09:40:28;;;;;;;14.30;4.30;;;28.80;72.90;;;;;;5049824;28;20540;-56
2023/09/30 09:42:58;;;;;;;7.78;2.95;;;29.30;73.00;;;;;;5045156;28;20025;-56
2023/09/30 09:45:26;;;;;;;8.68;3.30;;;29.40;71.90;;;;;;5042452;28;20068;-57
2023/09/30 09:47:54;;;;;;;7.93;2.92;;;29.10;71.20;;;;;;5036094;28;20490;-56
2023/09/30 09:50:21;;;;;;;10.02;3.22;;;28.40;72.50;;;;;;5044545;28;20494;-56
2023/09/30 09:52:55;;;;;;;9.05;3.55;;;27.60;74.50;;;;;;5047172;28;20136;-56
2023/09/30 09:55:23;;;;;;;8.15;3.17;;;28.30;72.60;;;;;;5045428;28;20022;-56
2023/09/30 09:57:49;;;;;;;7.82;3.38;;;28.40;73.40;;;;;;5044162;28;20062;-56
2023/09/30 10:00:20;;;;;;;6.97;3.03;;;28.50;73.20;;;;;;5037894;28;20045;-56
2023/09/30 10:02:47;;;;;;;11.25;3.22;;;29.00;72.00;;;;;;5045780;28;20032;-55
2023/09/30 10:05:13;;;;;;;9.82;3.30;;;28.50;72.10;;;;;;5045295;28;20100;-56
2023/09/30 10:07:52;;;;;;;7.70;3.00;;;27.40;74.20;;;;;;5034693;28;20020;-55
2023/09/30 10:10:19;;;;;;;8.50;3.30;;;27.40;74.50;;;;;;5038457;28;20400;-55
2023/09/30 10:12:46;;;;;;;12.02;3.47;;;27.10;75.00;;;;;;5045084;28;20096;-55
2023/09/30 10:15:39;;;;;;;11.68;3.13;;;27.10;76.00;;;;;;5045392;28;20021;-55
2023/09/30 10:18:14;;;;;;;8.95;2.88;;;26.90;75.00;;;;;;5042810;28;20043;-55
2023/09/30 10:20:43;;;;;;;6.88;2.70;;;26.30;77.10;;;;;;5032263;28;20028;-55
2023/09/30 10:23:18;;;;;;;13.35;2.90;;;25.70;77.30;;;;;;5040206;28;20028;-56
2023/09/30 10:25:47;;;;;;;6.93;3.13;;;25.40;80.00;;;;;;5039507;28;20025;-55
2023/09/30 10:28:35;;;;;;;9.02;2.97;;;24.60;80.60;;;;;;5045218;28;20017;-56
2023/09/30 10:31:12;;;;;;;11.43;3.25;;;24.90;80.10;;;;;;5042885;28;20152;-55
2023/09/30 10:34:03;;;;;;;12.50;3.35;;;24.40;80.70;;;;;;5046322;28;20032;-55
2023/09/30 10:36:30;;;;;;;14.90;3.40;;;24.40;80.90;;;;;;5039336;28;20068;-56
2023/09/30 10:38:56;;;;;;;7.97;3.20;;;24.20;80.60;;;;;;5044856;28;20037;-55
2023/09/30 10:41:50;;;;;;;7.70;2.80;;;24.70;81.90;;;;;;5040042;28;20036;-55
2023/09/30 10:44:29;;;;;;;9.18;3.10;;;25.00;80.30;;;;;;5043098;28;20021;-57
2023/09/30 10:46:59;;;;;;;12.80;3.55;;;24.80;80.70;;;;;;5045954;28;20017;-56
2023/09/30 10:49:25;;;;;;;11.15;3.35;;;24.70;79.20;;;;;;5045595;28;20025;-56
2023/09/30 10:51:52;;;;;;;7.60;2.75;;;25.10;79.40;;;;;;5040049;28;20131;-55
2023/09/30 10:54:28;;;;;;;7.47;3.33;;;25.70;78.20;;;;;;5045499;28;20032;-56
2023/09/30 10:56:54;;;;;;;10.18;3.83;;;25.80;78.20;;;;;;5048535;28;20538;-56
2023/09/30 10:59:24;;;;;;;8.35;2.90;;;25.50;77.90;;;;;;5045562;28;20402;-56
2023/09/30 11:01:51;;;;;;;11.75;3.85;;;25.00;79.00;;;;;;5046040;28;20028;-55
2023/09/30 11:04:18;;;;;;;8.52;3.20;;;23.90;81.30;;;;;;5046230;28;20094;-55
2023/09/30 11:06:44;;;;;;;7.55;2.60;;;23.60;83.00;;;;;;5043498;28;20921;-55
2023/09/30 11:09:19;;;;;;;8.23;2.97;;;24.20;83.10;;;;;;5045085;28;20487;-56
2023/09/30 11:11:48;;;;;;;11.00;3.45;;;25.10;80.80;;;;;;5044268;28;20104;-56
2023/09/30 11:14:18;;;;;;;9.43;3.63;;;25.20;78.40;;;;;;5042154;28;20378;-56
2023/09/30 11:16:44;;;;;;;5.30;2.53;;;25.70;77.70;;;;;;5037527;28;20751;-56
2023/09/30 11:19:12;;;;;;;8.32;2.67;;;25.70;77.10;;;;;;5034056;28;20069;-55
2023/09/30 11:21:39;;;;;;;8.85;3.25;;;25.30;78.30;;;;;;5033585;28;20028;-55
2023/09/30 11:24:06;;;;;;;9.43;3.38;;;25.90;78.80;;;;;;5036121;28;20025;-56
2023/09/30 11:26:32;;;;;;;7.28;2.90;;;26.40;77.20;;;;;;5036774;28;20025;-57
2023/09/30 11:29:05;;;;;;;6.38;2.67;;;26.80;77.80;;;;;;5045947;28;20022;-57
2023/09/30 11:31:33;;;;;;;8.68;2.55;;;27.20;74.00;;;;;;5044175;28;20467;-56
2023/09/30 11:34:03;;;;;;;10.40;2.80;;;27.50;75.20;;;;;;5039274;28;20017;-57
2023/09/30 11:36:30;;;;;;;;;;;27.60;73.30;;;;;;5038592;28;20021;-57
2023/09/30 11:38:56;;;;;;;8.75;3.08;;;26.80;73.00;;;;;;5037194;28;19992;-56
2023/09/30 11:41:22;;;;;;;5.53;2.22;;;25.90;74.70;;;;;;5040663;28;20033;-56
2023/09/30 11:44:07;;;;;;;9.15;2.70;;;25.40;73.60;;;;;;5038040;28;20029;-56
2023/09/30 11:46:51;;;;;;;5.10;2.10;;;24.50;77.10;;;;;;5041891;28;20525;-56
2023/09/30 11:49:32;;;;;;;8.48;2.53;;;23.80;77.70;;;;;;5043871;28;20032;-56
2023/09/30 11:52:00;;;;;;;7.85;2.28;;;23.00;79.90;;;;;;5044664;28;20013;-56
2023/09/30 11:54:33;;;;;;;7.13;2.90;;;22.50;80.60;;;;;;5050223;28;20025;-56
2023/09/30 11:57:02;;;;;;;9.45;2.47;;;22.40;80.40;;;;;;5048603;28;20352;-56
2023/09/30 11:59:29;;;;;;;11.73;2.07;;;22.60;82.30;;;;;;5048156;28;20013;-57
2023/09/30 12:01:55;;;;;;;8.25;2.85;;;23.00;80.70;;;;;;5049663;28;20015;-57
2023/09/30 12:04:21;;;;;;;7.93;2.60;;;23.40;78.80;;;;;;5042153;28;20021;-57
2023/09/30 12:06:48;;;;;;;7.05;2.50;;;23.30;78.80;;;;;;5046474;28;20064;-57
2023/09/30 12:09:14;;;;;;;8.10;3.05;;;23.20;78.80;;;;;;5048419;28;20029;-56
2023/09/30 12:11:43;;;;;;;10.90;3.25;;;22.80;79.90;;;;;;5048049;28;20086;-56
2023/09/30 12:14:13;;;;;;;5.38;1.88;;;22.40;80.00;;;;;;5047089;28;20072;-56
2023/09/30 12:16:39;;;;;;;7.32;2.38;;;22.30;82.30;;;;;;5041713;28;20494;-56
2023/09/30 12:19:08;;;;;;;7.25;2.50;;;22.50;81.80;;;;;;5044958;28;20041;-56
2023/09/30 12:21:34;;;;;;;7.03;2.45;;;22.70;82.30;;;;;;5050030;28;20490;-56
2023/09/30 12:24:02;;;;;;;8.88;2.70;;;22.50;81.30;;;;;;5050807;28;20024;-56
2023/09/30 12:26:28;;;;;;;13.10;3.00;;;22.00;82.20;;;;;;5044452;28;20029;-56
2023/09/30 12:28:55;;;;;;;15.40;3.05;;;21.90;83.60;;;;;;5048779;28;20023;-56
2023/09/30 12:31:21;;;;;;;8.43;2.60;;;21.60;83.80;;;;;;5048749;28;20017;-56
2023/09/30 12:33:50;;;;;;;4.93;2.35;;;21.60;85.60;;;;;;5051087;28;20017;-56
2023/09/30 12:36:16;;;;;;;14.70;3.80;;;22.00;87.30;;;;;;5048151;28;20057;-56
2023/09/30 12:38:42;;;;;;;10.55;2.70;;;22.30;87.00;;;;;;5050827;28;20569;-55